sensor_id;sensor_type;location;lat;lon;timestamp;temperature;humidity
18932;DHT22;9598;50.954;3.112;2022-12-20T00:02:58;10.40;99.90
18932;DHT22;9598;50.954;3.112;2022-12-20T00:08:00;10.40;99.90
18932;DHT22;9598;50.954;3.112;2022-12-20T00:13:03;10.40;99.90
18932;DHT22;9598;50.954;3.112;2022-12-20T00:18:06;10.50;99.90
18932;DHT22;9598;50.954;3.112;2022-12-20T00:23:08;10.50;99.90
18932;DHT22;9598;50.954;3.112;2022-12-20T00:28:11;10.50;99.90
18932;DHT22;9598;50.954;3.112;2022-12-20T00:33:13;10.50;99.90
18932;DHT22;9598;50.954;3.112;2022-12-20T00:38:18;10.60;99.90
18932;DHT22;9598;50.954;3.112;2022-12-20T00:43:22;10.50;99.90
18932;DHT22;9598;50.954;3.112;2022-12-20T00:48:24;10.50;99.90
18932;DHT22;9598;50.954;3.112;2022-12-20T00:53:26;10.60;99.90
18932;DHT22;9598;50.954;3.112;2022-12-20T00:58:31;10.60;99.90
18932;DHT22;9598;50.954;3.112;2022-12-20T01:03:39;10.60;99.90
18932;DHT22;9598;50.954;3.112;2022-12-20T01:08:41;10.60;99.90
18932;DHT22;9598;50.954;3.112;2022-12-20T01:13:46;10.60;99.90
18932;DHT22;9598;50.954;3.112;2022-12-20T01:18:49;10.70;99.90
18932;DHT22;9598;50.954;3.112;2022-12-20T01:23:54;10.70;99.90
18932;DHT22;9598;50.954;3.112;2022-12-20T01:28:58;10.70;99.90
18932;DHT22;9598;50.954;3.112;2022-12-20T01:34:01;10.70;99.90
18932;DHT22;9598;50.954;3.112;2022-12-20T01:39:05;10.70;99.90
18932;DHT22;9598;50.954;3.112;2022-12-20T01:49:52;10.70;99.90
18932;DHT22;9598;50.954;3.112;2022-12-20T01:55:01;10.70;99.90
18932;DHT22;9598;50.954;3.112;2022-12-20T02:00:06;10.70;99.90
18932;DHT22;9598;50.954;3.112;2022-12-20T02:05:17;10.70;99.90
18932;DHT22;9598;50.954;3.112;2022-12-20T02:10:23;10.80;99.90
18932;DHT22;9598;50.954;3.112;2022-12-20T02:15:40;10.80;99.90
18932;DHT22;9598;50.954;3.112;2022-12-20T02:26:31;10.80;99.90
18932;DHT22;9598;50.954;3.112;2022-12-20T02:31:45;10.90;99.90
18932;DHT22;9598;50.954;3.112;2022-12-20T02:36:49;10.90;99.90
18932;DHT22;9598;50.954;3.112;2022-12-20T02:41:53;10.90;99.90
18932;DHT22;9598;50.954;3.112;2022-12-20T02:46:59;10.90;99.90
18932;DHT22;9598;50.954;3.112;2022-12-20T02:52:04;11.00;99.90
18932;DHT22;9598;50.954;3.112;2022-12-20T02:57:12;11.00;99.90
18932;DHT22;9598;50.954;3.112;2022-12-20T03:02:18;11.00;99.90
18932;DHT22;9598;50.954;3.112;2022-12-20T03:07:21;11.00;99.90
18932;DHT22;9598;50.954;3.112;2022-12-20T03:12:23;11.10;99.90
18932;DHT22;9598;50.954;3.112;2022-12-20T03:17:27;11.10;99.90
18932;DHT22;9598;50.954;3.112;2022-12-20T03:22:29;11.10;99.90
18932;DHT22;9598;50.954;3.112;2022-12-20T03:27:32;11.10;99.90
18932;DHT22;9598;50.954;3.112;2022-12-20T03:32:37;11.10;99.90
18932;DHT22;9598;50.954;3.112;2022-12-20T03:37:40;11.10;99.90
18932;DHT22;9598;50.954;3.112;2022-12-20T03:42:43;11.10;99.90
18932;DHT22;9598;50.954;3.112;2022-12-20T03:47:47;11.20;99.90
18932;DHT22;9598;50.954;3.112;2022-12-20T03:52:52;11.20;99.90
18932;DHT22;9598;50.954;3.112;2022-12-20T03:57:54;11.20;99.90
18932;DHT22;9598;50.954;3.112;2022-12-20T04:03:05;11.20;99.90
18932;DHT22;9598;50.954;3.112;2022-12-20T04:08:07;11.10;99.90
18932;DHT22;9598;50.954;3.112;2022-12-20T04:13:10;11.20;99.90
18932;DHT22;9598;50.954;3.112;2022-12-20T04:18:13;11.10;99.90
18932;DHT22;9598;50.954;3.112;2022-12-20T04:23:16;11.10;99.90
18932;DHT22;9598;50.954;3.112;2022-12-20T04:28:19;11.20;99.90
18932;DHT22;9598;50.954;3.112;2022-12-20T04:33:24;11.20;99.90
18932;DHT22;9598;50.954;3.112;2022-12-20T04:38:28;11.20;99.90
18932;DHT22;9598;50.954;3.112;2022-12-20T04:43:31;11.20;99.90
18932;DHT22;9598;50.954;3.112;2022-12-20T04:48:35;11.20;99.90
18932;DHT22;9598;50.954;3.112;2022-12-20T04:53:41;11.20;99.90
18932;DHT22;9598;50.954;3.112;2022-12-20T04:59:05;11.30;99.90
18932;DHT22;9598;50.954;3.112;2022-12-20T05:04:09;11.30;99.90
18932;DHT22;9598;50.954;3.112;2022-12-20T05:09:12;11.30;99.90
18932;DHT22;9598;50.954;3.112;2022-12-20T05:14:14;11.40;99.90
18932;DHT22;9598;50.954;3.112;2022-12-20T05:19:18;11.40;99.90
18932;DHT22;9598;50.954;3.112;2022-12-20T05:24:20;11.40;99.90
18932;DHT22;9598;50.954;3.112;2022-12-20T05:29:51;11.40;99.90
18932;DHT22;9598;50.954;3.112;2022-12-20T05:34:56;11.40;99.90
18932;DHT22;9598;50.954;3.112;2022-12-20T05:39:59;11.50;99.90
18932;DHT22;9598;50.954;3.112;2022-12-20T05:45:01;11.50;99.90
18932;DHT22;9598;50.954;3.112;2022-12-20T05:50:09;11.50;99.90
18932;DHT22;9598;50.954;3.112;2022-12-20T05:55:31;11.50;99.90
18932;DHT22;9598;50.954;3.112;2022-12-20T06:00:34;11.50;99.90
18932;DHT22;9598;50.954;3.112;2022-12-20T06:05:38;11.50;99.90
18932;DHT22;9598;50.954;3.112;2022-12-20T06:10:40;11.50;99.90
18932;DHT22;9598;50.954;3.112;2022-12-20T06:15:43;11.60;99.90
18932;DHT22;9598;50.954;3.112;2022-12-20T06:20:50;11.50;99.90
18932;DHT22;9598;50.954;3.112;2022-12-20T06:25:55;11.60;99.90
18932;DHT22;9598;50.954;3.112;2022-12-20T06:30:59;11.50;99.90
18932;DHT22;9598;50.954;3.112;2022-12-20T06:36:22;11.60;99.90
18932;DHT22;9598;50.954;3.112;2022-12-20T06:41:25;11.50;99.90
18932;DHT22;9598;50.954;3.112;2022-12-20T06:46:27;11.50;99.90
18932;DHT22;9598;50.954;3.112;2022-12-20T06:51:32;11.40;99.90
18932;DHT22;9598;50.954;3.112;2022-12-20T06:56:34;11.40;99.90
18932;DHT22;9598;50.954;3.112;2022-12-20T07:01:38;11.30;99.90
18932;DHT22;9598;50.954;3.112;2022-12-20T07:06:42;11.20;99.90
18932;DHT22;9598;50.954;3.112;2022-12-20T07:11:44;11.20;99.90
18932;DHT22;9598;50.954;3.112;2022-12-20T07:16:46;11.10;99.90
18932;DHT22;9598;50.954;3.112;2022-12-20T07:21:49;11.10;99.90
18932;DHT22;9598;50.954;3.112;2022-12-20T07:26:51;11.00;99.90
18932;DHT22;9598;50.954;3.112;2022-12-20T07:31:53;11.00;99.90
18932;DHT22;9598;50.954;3.112;2022-12-20T07:36:57;10.90;99.90
18932;DHT22;9598;50.954;3.112;2022-12-20T07:41:59;11.00;99.90
18932;DHT22;9598;50.954;3.112;2022-12-20T07:47:11;10.90;99.90
18932;DHT22;9598;50.954;3.112;2022-12-20T07:52:17;10.90;99.90
18932;DHT22;9598;50.954;3.112;2022-12-20T07:57:24;10.90;99.90
18932;DHT22;9598;50.954;3.112;2022-12-20T08:02:31;10.90;99.90
18932;DHT22;9598;50.954;3.112;2022-12-20T08:07:39;10.90;99.90
18932;DHT22;9598;50.954;3.112;2022-12-20T08:12:42;11.00;99.90
18932;DHT22;9598;50.954;3.112;2022-12-20T08:17:45;10.90;99.90
18932;DHT22;9598;50.954;3.112;2022-12-20T08:22:48;11.00;99.90
18932;DHT22;9598;50.954;3.112;2022-12-20T08:27:50;11.00;99.90
18932;DHT22;9598;50.954;3.112;2022-12-20T08:32:53;11.00;99.90
18932;DHT22;9598;50.954;3.112;2022-12-20T08:37:56;11.00;99.90
18932;DHT22;9598;50.954;3.112;2022-12-20T08:42:58;11.00;99.90
18932;DHT22;9598;50.954;3.112;2022-12-20T08:48:00;11.00;99.90
18932;DHT22;9598;50.954;3.112;2022-12-20T08:53:03;11.10;99.90
18932;DHT22;9598;50.954;3.112;2022-12-20T08:58:05;11.10;99.90
18932;DHT22;9598;50.954;3.112;2022-12-20T09:03:08;11.10;99.90
18932;DHT22;9598;50.954;3.112;2022-12-20T09:08:13;11.10;99.90
18932;DHT22;9598;50.954;3.112;2022-12-20T09:13:16;11.20;99.90
18932;DHT22;9598;50.954;3.112;2022-12-20T09:18:18;11.20;99.90
18932;DHT22;9598;50.954;3.112;2022-12-20T09:23:21;11.20;99.90
18932;DHT22;9598;50.954;3.112;2022-12-20T09:28:23;11.30;99.90
18932;DHT22;9598;50.954;3.112;2022-12-20T09:33:26;11.20;99.90
18932;DHT22;9598;50.954;3.112;2022-12-20T09:38:30;11.30;99.90
18932;DHT22;9598;50.954;3.112;2022-12-20T09:43:33;11.30;99.90
18932;DHT22;9598;50.954;3.112;2022-12-20T09:48:38;11.30;99.90
18932;DHT22;9598;50.954;3.112;2022-12-20T09:53:51;11.30;99.90
18932;DHT22;9598;50.954;3.112;2022-12-20T09:59:01;11.30;99.90
18932;DHT22;9598;50.954;3.112;2022-12-20T10:04:14;11.20;99.90
18932;DHT22;9598;50.954;3.112;2022-12-20T10:09:35;11.20;99.90
18932;DHT22;9598;50.954;3.112;2022-12-20T10:14:53;11.20;99.90
18932;DHT22;9598;50.954;3.112;2022-12-20T10:20:05;11.30;99.90
18932;DHT22;9598;50.954;3.112;2022-12-20T10:25:17;11.30;99.90
18932;DHT22;9598;50.954;3.112;2022-12-20T10:30:22;11.20;99.90
18932;DHT22;9598;50.954;3.112;2022-12-20T10:35:26;11.20;99.90
18932;DHT22;9598;50.954;3.112;2022-12-20T10:40:34;11.20;99.90
18932;DHT22;9598;50.954;3.112;2022-12-20T10:45:39;11.30;99.90
18932;DHT22;9598;50.954;3.112;2022-12-20T10:50:42;11.20;99.90
18932;DHT22;9598;50.954;3.112;2022-12-20T10:55:49;11.20;99.90
18932;DHT22;9598;50.954;3.112;2022-12-20T11:01:03;11.30;99.90
18932;DHT22;9598;50.954;3.112;2022-12-20T11:06:15;11.20;99.90
18932;DHT22;9598;50.954;3.112;2022-12-20T11:11:20;11.30;99.90
18932;DHT22;9598;50.954;3.112;2022-12-20T11:16:33;11.20;99.90
18932;DHT22;9598;50.954;3.112;2022-12-20T11:21:43;11.20;99.90
18932;DHT22;9598;50.954;3.112;2022-12-20T11:27:12;11.20;99.90
18932;DHT22;9598;50.954;3.112;2022-12-20T11:32:27;11.20;99.90
18932;DHT22;9598;50.954;3.112;2022-12-20T11:37:36;11.20;99.90
18932;DHT22;9598;50.954;3.112;2022-12-20T11:42:51;11.20;99.90
18932;DHT22;9598;50.954;3.112;2022-12-20T11:53:35;11.20;99.90
18932;DHT22;9598;50.954;3.112;2022-12-20T11:58:47;11.20;99.90
18932;DHT22;9598;50.954;3.112;2022-12-20T12:03:59;11.20;99.90
18932;DHT22;9598;50.954;3.112;2022-12-20T12:09:14;11.20;99.90
18932;DHT22;9598;50.954;3.112;2022-12-20T12:14:32;11.20;99.90
18932;DHT22;9598;50.954;3.112;2022-12-20T12:19:44;11.20;99.90
18932;DHT22;9598;50.954;3.112;2022-12-20T12:24:53;11.20;99.90
18932;DHT22;9598;50.954;3.112;2022-12-20T12:29:58;11.30;99.90
18932;DHT22;9598;50.954;3.112;2022-12-20T12:40:49;11.30;99.90
18932;DHT22;9598;50.954;3.112;2022-12-20T12:45:57;11.30;99.90
18932;DHT22;9598;50.954;3.112;2022-12-20T12:51:00;11.20;99.90
18932;DHT22;9598;50.954;3.112;2022-12-20T12:56:30;11.20;99.90
18932;DHT22;9598;50.954;3.112;2022-12-20T13:01:49;11.30;99.90
18932;DHT22;9598;50.954;3.112;2022-12-20T13:07:02;11.30;99.90
18932;DHT22;9598;50.954;3.112;2022-12-20T13:17:51;11.20;99.90
18932;DHT22;9598;50.954;3.112;2022-12-20T13:23:22;11.20;99.90
18932;DHT22;9598;50.954;3.112;2022-12-20T13:28:43;11.20;99.90
18932;DHT22;9598;50.954;3.112;2022-12-20T13:33:49;11.20;99.90
18932;DHT22;9598;50.954;3.112;2022-12-20T13:38:57;11.20;99.90
18932;DHT22;9598;50.954;3.112;2022-12-20T13:44:08;11.20;99.90
18932;DHT22;9598;50.954;3.112;2022-12-20T13:49:17;11.20;99.90
18932;DHT22;9598;50.954;3.112;2022-12-20T13:54:22;11.20;99.90
18932;DHT22;9598;50.954;3.112;2022-12-20T13:59:25;11.20;99.90
18932;DHT22;9598;50.954;3.112;2022-12-20T14:04:40;11.30;99.90
18932;DHT22;9598;50.954;3.112;2022-12-20T14:09:44;11.30;99.90
18932;DHT22;9598;50.954;3.112;2022-12-20T14:14:49;11.30;99.90
18932;DHT22;9598;50.954;3.112;2022-12-20T14:20:05;11.20;99.90
18932;DHT22;9598;50.954;3.112;2022-12-20T14:25:08;11.30;99.90
18932;DHT22;9598;50.954;3.112;2022-12-20T14:30:26;11.30;99.90
18932;DHT22;9598;50.954;3.112;2022-12-20T14:35:31;11.20;99.90
18932;DHT22;9598;50.954;3.112;2022-12-20T14:40:40;11.20;99.90
18932;DHT22;9598;50.954;3.112;2022-12-20T14:45:43;11.20;99.90
18932;DHT22;9598;50.954;3.112;2022-12-20T14:50:52;11.20;99.90
18932;DHT22;9598;50.954;3.112;2022-12-20T14:55:55;11.20;99.90
18932;DHT22;9598;50.954;3.112;2022-12-20T15:00:58;11.20;99.90
18932;DHT22;9598;50.954;3.112;2022-12-20T15:06:02;11.20;99.90
18932;DHT22;9598;50.954;3.112;2022-12-20T15:11:20;11.20;99.90
18932;DHT22;9598;50.954;3.112;2022-12-20T15:16:25;11.20;99.90
18932;DHT22;9598;50.954;3.112;2022-12-20T15:21:31;11.20;99.90
18932;DHT22;9598;50.954;3.112;2022-12-20T15:26:34;11.20;99.90
18932;DHT22;9598;50.954;3.112;2022-12-20T15:31:36;11.20;99.90
18932;DHT22;9598;50.954;3.112;2022-12-20T15:36:40;11.20;99.90
18932;DHT22;9598;50.954;3.112;2022-12-20T15:41:44;11.20;99.90
18932;DHT22;9598;50.954;3.112;2022-12-20T15:46:49;11.20;99.90
18932;DHT22;9598;50.954;3.112;2022-12-20T15:51:53;11.20;99.90
18932;DHT22;9598;50.954;3.112;2022-12-20T15:56:57;11.20;99.90
18932;DHT22;9598;50.954;3.112;2022-12-20T16:02:02;11.20;99.90
18932;DHT22;9598;50.954;3.112;2022-12-20T16:07:12;11.10;99.90
18932;DHT22;9598;50.954;3.112;2022-12-20T16:12:16;11.10;99.90
18932;DHT22;9598;50.954;3.112;2022-12-20T16:17:19;11.10;99.90
18932;DHT22;9598;50.954;3.112;2022-12-20T16:22:23;11.10;99.90
18932;DHT22;9598;50.954;3.112;2022-12-20T16:27:25;11.10;99.90
18932;DHT22;9598;50.954;3.112;2022-12-20T16:32:27;11.20;99.90
18932;DHT22;9598;50.954;3.112;2022-12-20T16:37:31;11.10;99.90
18932;DHT22;9598;50.954;3.112;2022-12-20T16:42:33;11.10;99.90
18932;DHT22;9598;50.954;3.112;2022-12-20T16:47:35;11.10;99.90
18932;DHT22;9598;50.954;3.112;2022-12-20T16:52:39;11.10;99.90
18932;DHT22;9598;50.954;3.112;2022-12-20T16:57:41;11.10;99.90
18932;DHT22;9598;50.954;3.112;2022-12-20T17:02:43;11.10;99.90
18932;DHT22;9598;50.954;3.112;2022-12-20T17:07:47;11.10;99.90
18932;DHT22;9598;50.954;3.112;2022-12-20T17:12:50;11.10;99.90
18932;DHT22;9598;50.954;3.112;2022-12-20T17:17:53;11.10;99.90
18932;DHT22;9598;50.954;3.112;2022-12-20T17:22:56;11.10;99.90
18932;DHT22;9598;50.954;3.112;2022-12-20T17:27:59;11.10;99.90
18932;DHT22;9598;50.954;3.112;2022-12-20T17:33:01;11.10;99.90
18932;DHT22;9598;50.954;3.112;2022-12-20T17:38:04;11.10;99.90
18932;DHT22;9598;50.954;3.112;2022-12-20T17:43:09;11.10;99.90
18932;DHT22;9598;50.954;3.112;2022-12-20T17:48:12;11.10;99.90
18932;DHT22;9598;50.954;3.112;2022-12-20T17:53:15;11.20;99.90
18932;DHT22;9598;50.954;3.112;2022-12-20T17:58:17;11.20;99.90
18932;DHT22;9598;50.954;3.112;2022-12-20T18:03:19;11.20;99.90
18932;DHT22;9598;50.954;3.112;2022-12-20T18:08:23;11.20;99.90
18932;DHT22;9598;50.954;3.112;2022-12-20T18:13:25;11.30;99.90
18932;DHT22;9598;50.954;3.112;2022-12-20T18:18:27;11.20;99.90
18932;DHT22;9598;50.954;3.112;2022-12-20T18:23:32;11.20;99.90
18932;DHT22;9598;50.954;3.112;2022-12-20T18:28:34;11.30;99.90
18932;DHT22;9598;50.954;3.112;2022-12-20T18:33:37;11.30;99.90
18932;DHT22;9598;50.954;3.112;2022-12-20T18:38:42;11.20;99.90
18932;DHT22;9598;50.954;3.112;2022-12-20T18:43:44;11.20;99.90
18932;DHT22;9598;50.954;3.112;2022-12-20T18:48:48;11.20;99.90
18932;DHT22;9598;50.954;3.112;2022-12-20T18:53:53;11.20;99.90
18932;DHT22;9598;50.954;3.112;2022-12-20T18:58:57;11.20;99.90
18932;DHT22;9598;50.954;3.112;2022-12-20T19:04:01;11.20;99.90
18932;DHT22;9598;50.954;3.112;2022-12-20T19:09:07;11.30;99.90
18932;DHT22;9598;50.954;3.112;2022-12-20T19:14:10;11.20;99.90
18932;DHT22;9598;50.954;3.112;2022-12-20T19:19:13;11.20;99.90
18932;DHT22;9598;50.954;3.112;2022-12-20T19:24:16;11.10;99.90
18932;DHT22;9598;50.954;3.112;2022-12-20T19:29:18;11.00;99.90
18932;DHT22;9598;50.954;3.112;2022-12-20T19:34:21;10.90;99.90
18932;DHT22;9598;50.954;3.112;2022-12-20T19:39:24;10.90;99.90
18932;DHT22;9598;50.954;3.112;2022-12-20T19:44:28;10.90;99.90
18932;DHT22;9598;50.954;3.112;2022-12-20T19:49:30;10.90;99.90
18932;DHT22;9598;50.954;3.112;2022-12-20T19:54:34;10.90;99.90
18932;DHT22;9598;50.954;3.112;2022-12-20T19:59:36;10.90;99.90
18932;DHT22;9598;50.954;3.112;2022-12-20T20:04:38;10.90;99.90
18932;DHT22;9598;50.954;3.112;2022-12-20T20:09:41;10.90;99.90
18932;DHT22;9598;50.954;3.112;2022-12-20T20:14:43;10.90;99.90
18932;DHT22;9598;50.954;3.112;2022-12-20T20:19:46;10.90;99.90
18932;DHT22;9598;50.954;3.112;2022-12-20T20:24:49;10.90;99.90
18932;DHT22;9598;50.954;3.112;2022-12-20T20:29:52;10.80;99.90
18932;DHT22;9598;50.954;3.112;2022-12-20T20:34:54;10.80;99.90
18932;DHT22;9598;50.954;3.112;2022-12-20T20:39:57;10.80;99.90
18932;DHT22;9598;50.954;3.112;2022-12-20T20:44:59;10.80;99.90
18932;DHT22;9598;50.954;3.112;2022-12-20T20:50:02;10.70;99.90
18932;DHT22;9598;50.954;3.112;2022-12-20T20:55:07;10.70;99.90
18932;DHT22;9598;50.954;3.112;2022-12-20T21:00:10;10.60;99.90
18932;DHT22;9598;50.954;3.112;2022-12-20T21:05:13;10.60;99.90
18932;DHT22;9598;50.954;3.112;2022-12-20T21:10:16;10.60;99.90
18932;DHT22;9598;50.954;3.112;2022-12-20T21:15:18;10.60;99.90
18932;DHT22;9598;50.954;3.112;2022-12-20T21:20:21;10.50;99.90
18932;DHT22;9598;50.954;3.112;2022-12-20T21:25:24;10.50;99.90
18932;DHT22;9598;50.954;3.112;2022-12-20T21:30:26;10.50;99.90
18932;DHT22;9598;50.954;3.112;2022-12-20T21:35:28;10.50;99.90
18932;DHT22;9598;50.954;3.112;2022-12-20T21:40:32;10.40;99.90
18932;DHT22;9598;50.954;3.112;2022-12-20T21:45:34;10.40;99.90
18932;DHT22;9598;50.954;3.112;2022-12-20T21:50:36;10.40;99.90
18932;DHT22;9598;50.954;3.112;2022-12-20T21:55:40;10.40;99.90
18932;DHT22;9598;50.954;3.112;2022-12-20T22:00:42;10.30;99.90
18932;DHT22;9598;50.954;3.112;2022-12-20T22:05:45;10.30;99.90
18932;DHT22;9598;50.954;3.112;2022-12-20T22:10:56;10.30;99.90
18932;DHT22;9598;50.954;3.112;2022-12-20T22:15:58;10.20;99.90
18932;DHT22;9598;50.954;3.112;2022-12-20T22:21:07;10.20;99.90
18932;DHT22;9598;50.954;3.112;2022-12-20T22:26:12;10.20;99.90
18932;DHT22;9598;50.954;3.112;2022-12-20T22:31:14;10.20;99.90
18932;DHT22;9598;50.954;3.112;2022-12-20T22:36:17;10.10;99.90
18932;DHT22;9598;50.954;3.112;2022-12-20T22:41:22;10.10;99.90
18932;DHT22;9598;50.954;3.112;2022-12-20T22:46:25;10.10;99.90
18932;DHT22;9598;50.954;3.112;2022-12-20T22:51:29;10.10;99.90
18932;DHT22;9598;50.954;3.112;2022-12-20T22:56:34;10.10;99.90
18932;DHT22;9598;50.954;3.112;2022-12-20T23:01:36;10.10;99.90
18932;DHT22;9598;50.954;3.112;2022-12-20T23:06:39;10.20;99.90
18932;DHT22;9598;50.954;3.112;2022-12-20T23:11:43;10.20;99.90
18932;DHT22;9598;50.954;3.112;2022-12-20T23:17:03;10.20;99.90
18932;DHT22;9598;50.954;3.112;2022-12-20T23:22:07;10.20;99.90
18932;DHT22;9598;50.954;3.112;2022-12-20T23:27:28;10.20;99.90
18932;DHT22;9598;50.954;3.112;2022-12-20T23:32:31;10.20;99.90
18932;DHT22;9598;50.954;3.112;2022-12-20T23:37:34;10.20;99.90
18932;DHT22;9598;50.954;3.112;2022-12-20T23:42:38;10.10;99.90
18932;DHT22;9598;50.954;3.112;2022-12-20T23:47:40;10.10;99.90
18932;DHT22;9598;50.954;3.112;2022-12-20T23:52:42;10.10;99.90
18932;DHT22;9598;50.954;3.112;2022-12-20T23:57:46;10.10;99.90
